Terminal Aerodrome Forecast
Issued by NWS Duluth, MN

Home | Current Version | Previous Version | Text Only | Print | Product List | Glossary On
Versions: 1 2 3 4 5 6 7 8 9 10 11 12 13 14 15 16 17 18 19 20 21
000
FTUS43 KDLH 201745
TAFINL
TAF
KINL 201745Z 2018/2118 14006KT 5SM BR SCT007 SCT013 OVC025
     FM202100 12006KT 2SM -RA BR OVC008
     FM210100 12005KT 1 1/2SM -SNRA BR OVC003=

USA.gov is the U.S. government's official web portal to all federal, state and local government web resources and services.